sensor_id;sensor_type;location;lat;lon;timestamp;pressure;altitude;pressure_sealevel;temperature;humidity
20156;BME280;10238;49.556;10.956;2023-09-08T00:02:10;98675.06;;;15.70;100.00
20156;BME280;10238;49.556;10.956;2023-09-08T00:04:58;98670.06;;;15.67;100.00
20156;BME280;10238;49.556;10.956;2023-09-08T00:07:47;98675.41;;;15.67;100.00
20156;BME280;10238;49.556;10.956;2023-09-08T00:10:35;98668.75;;;15.63;100.00
20156;BME280;10238;49.556;10.956;2023-09-08T00:13:22;98675.84;;;15.56;100.00
20156;BME280;10238;49.556;10.956;2023-09-08T00:16:10;98664.81;;;15.51;100.00
20156;BME280;10238;49.556;10.956;2023-09-08T00:18:58;98671.00;;;15.51;100.00
20156;BME280;10238;49.556;10.956;2023-09-08T00:21:46;98670.69;;;15.46;100.00
20156;BME280;10238;49.556;10.956;2023-09-08T00:24:35;98669.22;;;15.44;100.00
20156;BME280;10238;49.556;10.956;2023-09-08T00:27:24;98662.03;;;15.36;100.00
20156;BME280;10238;49.556;10.956;2023-09-08T00:30:13;98664.38;;;15.31;100.00
20156;BME280;10238;49.556;10.956;2023-09-08T00:33:04;98670.94;;;15.29;100.00
20156;BME280;10238;49.556;10.956;2023-09-08T00:35:55;98663.94;;;15.28;100.00
20156;BME280;10238;49.556;10.956;2023-09-08T00:38:44;98667.94;;;15.23;100.00
20156;BME280;10238;49.556;10.956;2023-09-08T00:41:33;98664.97;;;15.18;100.00
20156;BME280;10238;49.556;10.956;2023-09-08T00:44:20;98672.69;;;15.13;100.00
20156;BME280;10238;49.556;10.956;2023-09-08T00:47:08;98668.34;;;15.12;100.00
20156;BME280;10238;49.556;10.956;2023-09-08T00:49:56;98682.44;;;15.06;100.00
20156;BME280;10238;49.556;10.956;2023-09-08T00:52:44;98675.78;;;15.02;100.00
20156;BME280;10238;49.556;10.956;2023-09-08T00:55:33;98675.09;;;15.00;100.00
20156;BME280;10238;49.556;10.956;2023-09-08T00:58:22;98672.44;;;15.00;100.00
20156;BME280;10238;49.556;10.956;2023-09-08T01:01:10;98671.47;;;14.93;100.00
20156;BME280;10238;49.556;10.956;2023-09-08T01:03:57;98673.63;;;14.90;100.00
20156;BME280;10238;49.556;10.956;2023-09-08T01:06:46;98675.00;;;14.86;100.00
20156;BME280;10238;49.556;10.956;2023-09-08T01:09:35;98681.56;;;14.83;100.00
20156;BME280;10238;49.556;10.956;2023-09-08T01:12:25;98681.03;;;14.80;100.00
20156;BME280;10238;49.556;10.956;2023-09-08T01:15:14;98681.03;;;14.80;100.00
20156;BME280;10238;49.556;10.956;2023-09-08T01:18:03;98681.56;;;14.75;100.00
20156;BME280;10238;49.556;10.956;2023-09-08T01:21:17;98677.91;;;14.68;100.00
20156;BME280;10238;49.556;10.956;2023-09-08T01:24:31;98678.25;;;14.65;100.00
20156;BME280;10238;49.556;10.956;2023-09-08T01:27:28;98687.31;;;14.64;100.00
20156;BME280;10238;49.556;10.956;2023-09-08T01:30:19;98680.81;;;14.59;100.00
20156;BME280;10238;49.556;10.956;2023-09-08T01:33:08;98679.63;;;14.53;100.00
20156;BME280;10238;49.556;10.956;2023-09-08T01:35:55;98680.16;;;14.49;100.00
20156;BME280;10238;49.556;10.956;2023-09-08T01:38:43;98678.66;;;14.54;100.00
20156;BME280;10238;49.556;10.956;2023-09-08T01:41:31;98685.31;;;14.58;100.00
20156;BME280;10238;49.556;10.956;2023-09-08T01:44:20;98677.13;;;14.52;100.00
20156;BME280;10238;49.556;10.956;2023-09-08T01:47:07;98680.81;;;14.51;100.00
20156;BME280;10238;49.556;10.956;2023-09-08T01:49:55;98677.31;;;14.50;100.00
20156;BME280;10238;49.556;10.956;2023-09-08T01:52:43;98670.28;;;14.49;100.00
20156;BME280;10238;49.556;10.956;2023-09-08T01:55:30;98673.31;;;14.46;100.00
20156;BME280;10238;49.556;10.956;2023-09-08T01:58:18;98671.47;;;14.39;100.00
20156;BME280;10238;49.556;10.956;2023-09-08T02:01:07;98673.50;;;14.37;100.00
20156;BME280;10238;49.556;10.956;2023-09-08T02:03:54;98677.72;;;14.31;100.00
20156;BME280;10238;49.556;10.956;2023-09-08T02:06:42;98678.03;;;14.28;100.00
20156;BME280;10238;49.556;10.956;2023-09-08T02:09:34;98680.88;;;14.27;100.00
20156;BME280;10238;49.556;10.956;2023-09-08T02:12:22;98679.38;;;14.24;100.00
20156;BME280;10238;49.556;10.956;2023-09-08T02:15:10;98677.50;;;14.17;100.00
20156;BME280;10238;49.556;10.956;2023-09-08T02:18:00;98670.50;;;14.16;100.00
20156;BME280;10238;49.556;10.956;2023-09-08T02:20:47;98666.50;;;14.12;100.00
20156;BME280;10238;49.556;10.956;2023-09-08T02:23:38;98680.38;;;14.07;100.00
20156;BME280;10238;49.556;10.956;2023-09-08T02:26:25;98678.03;;;14.04;100.00
20156;BME280;10238;49.556;10.956;2023-09-08T02:29:14;98685.38;;;14.02;100.00
20156;BME280;10238;49.556;10.956;2023-09-08T02:32:01;98687.72;;;13.97;100.00
20156;BME280;10238;49.556;10.956;2023-09-08T02:34:51;98693.75;;;13.91;100.00
20156;BME280;10238;49.556;10.956;2023-09-08T02:37:39;98688.72;;;13.88;100.00
20156;BME280;10238;49.556;10.956;2023-09-08T02:40:26;98686.38;;;13.85;100.00
20156;BME280;10238;49.556;10.956;2023-09-08T02:43:14;98684.03;;;13.82;100.00
20156;BME280;10238;49.556;10.956;2023-09-08T02:46:02;98689.72;;;13.79;100.00
20156;BME280;10238;49.556;10.956;2023-09-08T02:48:50;98691.06;;;13.75;100.00
20156;BME280;10238;49.556;10.956;2023-09-08T02:51:40;98686.06;;;13.72;100.00
20156;BME280;10238;49.556;10.956;2023-09-08T02:54:28;98696.06;;;13.70;100.00
20156;BME280;10238;49.556;10.956;2023-09-08T02:57:16;98689.06;;;13.69;100.00
20156;BME280;10238;49.556;10.956;2023-09-08T03:00:08;98694.41;;;13.69;100.00
20156;BME280;10238;49.556;10.956;2023-09-08T03:03:01;98692.91;;;13.67;100.00
20156;BME280;10238;49.556;10.956;2023-09-08T03:05:53;98686.41;;;13.61;100.00
20156;BME280;10238;49.556;10.956;2023-09-08T03:08:44;98691.06;;;13.59;100.00
20156;BME280;10238;49.556;10.956;2023-09-08T03:11:32;98696.56;;;13.58;100.00
20156;BME280;10238;49.556;10.956;2023-09-08T03:14:19;98680.69;;;13.56;100.00
20156;BME280;10238;49.556;10.956;2023-09-08T03:17:07;98681.53;;;13.49;100.00
20156;BME280;10238;49.556;10.956;2023-09-08T03:19:55;98679.34;;;13.44;100.00
20156;BME280;10238;49.556;10.956;2023-09-08T03:22:42;98673.19;;;13.44;100.00
20156;BME280;10238;49.556;10.956;2023-09-08T03:25:31;98683.34;;;13.40;100.00
20156;BME280;10238;49.556;10.956;2023-09-08T03:28:19;98679.19;;;13.38;100.00
20156;BME280;10238;49.556;10.956;2023-09-08T03:31:06;98671.66;;;13.33;100.00
20156;BME280;10238;49.556;10.956;2023-09-08T03:33:54;98673.97;;;13.28;100.00
20156;BME280;10238;49.556;10.956;2023-09-08T03:36:42;98670.97;;;13.23;100.00
20156;BME280;10238;49.556;10.956;2023-09-08T03:39:29;98669.59;;;13.19;100.00
20156;BME280;10238;49.556;10.956;2023-09-08T03:42:18;98677.28;;;13.14;100.00
20156;BME280;10238;49.556;10.956;2023-09-08T03:45:07;98672.28;;;13.11;100.00
20156;BME280;10238;49.556;10.956;2023-09-08T03:47:55;98672.44;;;13.10;100.00
20156;BME280;10238;49.556;10.956;2023-09-08T03:50:43;98677.41;;;13.04;100.00
20156;BME280;10238;49.556;10.956;2023-09-08T03:53:32;98678.59;;;13.02;100.00
20156;BME280;10238;49.556;10.956;2023-09-08T03:56:20;98677.22;;;12.98;100.00
20156;BME280;10238;49.556;10.956;2023-09-08T03:59:10;98675.66;;;12.95;100.00
20156;BME280;10238;49.556;10.956;2023-09-08T04:01:57;98673.16;;;12.94;100.00
20156;BME280;10238;49.556;10.956;2023-09-08T04:04:45;98669.16;;;12.90;100.00
20156;BME280;10238;49.556;10.956;2023-09-08T04:07:33;98684.69;;;12.86;100.00
20156;BME280;10238;49.556;10.956;2023-09-08T04:10:20;98680.47;;;12.84;100.00
20156;BME280;10238;49.556;10.956;2023-09-08T04:13:08;98688.13;;;12.79;100.00
20156;BME280;10238;49.556;10.956;2023-09-08T04:15:57;98683.13;;;12.76;100.00
20156;BME280;10238;49.556;10.956;2023-09-08T04:18:44;98680.63;;;12.74;100.00
20156;BME280;10238;49.556;10.956;2023-09-08T04:21:32;98682.75;;;12.71;100.00
20156;BME280;10238;49.556;10.956;2023-09-08T04:24:20;98684.59;;;12.70;100.00
20156;BME280;10238;49.556;10.956;2023-09-08T04:27:08;98684.06;;;12.67;100.00
20156;BME280;10238;49.556;10.956;2023-09-08T04:29:59;98679.91;;;12.64;100.00
20156;BME280;10238;49.556;10.956;2023-09-08T04:32:48;98692.88;;;12.59;100.00
20156;BME280;10238;49.556;10.956;2023-09-08T04:35:36;98694.69;;;12.59;100.00
20156;BME280;10238;49.556;10.956;2023-09-08T04:38:24;98692.38;;;12.56;100.00
20156;BME280;10238;49.556;10.956;2023-09-08T04:41:12;98692.69;;;12.53;100.00
20156;BME280;10238;49.556;10.956;2023-09-08T04:43:59;98697.00;;;12.54;100.00
20156;BME280;10238;49.556;10.956;2023-09-08T04:46:48;98695.34;;;12.53;100.00
20156;BME280;10238;49.556;10.956;2023-09-08T04:49:37;98684.31;;;12.48;100.00
20156;BME280;10238;49.556;10.956;2023-09-08T04:52:25;98696.97;;;12.46;100.00
20156;BME280;10238;49.556;10.956;2023-09-08T04:55:13;98695.28;;;12.45;100.00
20156;BME280;10238;49.556;10.956;2023-09-08T04:58:00;98700.94;;;12.42;100.00
20156;BME280;10238;49.556;10.956;2023-09-08T05:00:49;98700.25;;;12.40;100.00
20156;BME280;10238;49.556;10.956;2023-09-08T05:03:37;98698.44;;;12.40;100.00
20156;BME280;10238;49.556;10.956;2023-09-08T05:06:27;98696.75;;;12.39;100.00
20156;BME280;10238;49.556;10.956;2023-09-08T05:09:14;98701.09;;;12.40;100.00
20156;BME280;10238;49.556;10.956;2023-09-08T05:12:02;98699.44;;;12.39;100.00
20156;BME280;10238;49.556;10.956;2023-09-08T05:14:50;98697.78;;;12.38;100.00
20156;BME280;10238;49.556;10.956;2023-09-08T05:17:49;98703.25;;;12.37;100.00
20156;BME280;10238;49.556;10.956;2023-09-08T05:20:36;98696.22;;;12.36;100.00
20156;BME280;10238;49.556;10.956;2023-09-08T05:23:26;98703.25;;;12.37;100.00
20156;BME280;10238;49.556;10.956;2023-09-08T05:26:13;98703.25;;;12.37;100.00
20156;BME280;10238;49.556;10.956;2023-09-08T05:29:01;98710.25;;;12.38;100.00
20156;BME280;10238;49.556;10.956;2023-09-08T05:31:49;98702.91;;;12.40;100.00
20156;BME280;10238;49.556;10.956;2023-09-08T05:34:39;98709.78;;;12.42;100.00
20156;BME280;10238;49.556;10.956;2023-09-08T05:37:26;98714.97;;;12.44;100.00
20156;BME280;10238;49.556;10.956;2023-09-08T05:40:15;98716.63;;;12.45;100.00
20156;BME280;10238;49.556;10.956;2023-09-08T05:43:05;98717.00;;;12.50;100.00
20156;BME280;10238;49.556;10.956;2023-09-08T05:45:52;98724.69;;;12.53;100.00
20156;BME280;10238;49.556;10.956;2023-09-08T05:48:40;98727.69;;;12.58;100.00
20156;BME280;10238;49.556;10.956;2023-09-08T05:51:28;98724.56;;;12.62;100.00
20156;BME280;10238;49.556;10.956;2023-09-08T05:54:16;98727.91;;;12.64;100.00
20156;BME280;10238;49.556;10.956;2023-09-08T05:57:06;98729.78;;;12.72;100.00
20156;BME280;10238;49.556;10.956;2023-09-08T05:59:53;98731.31;;;12.74;100.00
20156;BME280;10238;49.556;10.956;2023-09-08T06:02:41;98727.84;;;12.82;100.00
20156;BME280;10238;49.556;10.956;2023-09-08T06:05:29;98725.34;;;12.88;100.00
20156;BME280;10238;49.556;10.956;2023-09-08T06:08:16;98732.03;;;12.92;100.00
20156;BME280;10238;49.556;10.956;2023-09-08T06:11:04;98725.56;;;12.95;100.00
20156;BME280;10238;49.556;10.956;2023-09-08T06:13:53;98725.97;;;13.08;100.00
20156;BME280;10238;49.556;10.956;2023-09-08T06:16:45;98731.97;;;13.10;100.00
20156;BME280;10238;49.556;10.956;2023-09-08T06:19:33;98730.69;;;13.22;100.00
20156;BME280;10238;49.556;10.956;2023-09-08T06:22:21;98725.38;;;13.38;100.00
20156;BME280;10238;49.556;10.956;2023-09-08T06:25:09;98725.09;;;13.49;100.00
20156;BME280;10238;49.556;10.956;2023-09-08T06:27:56;98734.81;;;13.66;100.00
20156;BME280;10238;49.556;10.956;2023-09-08T06:30:45;98736.50;;;13.91;100.00
20156;BME280;10238;49.556;10.956;2023-09-08T06:33:33;98736.34;;;14.09;100.00
20156;BME280;10238;49.556;10.956;2023-09-08T06:36:21;98733.53;;;14.26;100.00
20156;BME280;10238;49.556;10.956;2023-09-08T06:39:09;98741.53;;;14.50;100.00
20156;BME280;10238;49.556;10.956;2023-09-08T06:41:56;98741.16;;;14.61;100.00
20156;BME280;10238;49.556;10.956;2023-09-08T06:44:52;98745.66;;;14.69;100.00
20156;BME280;10238;49.556;10.956;2023-09-08T06:47:40;98742.44;;;14.81;100.00
20156;BME280;10238;49.556;10.956;2023-09-08T06:50:28;98746.47;;;14.85;100.00
20156;BME280;10238;49.556;10.956;2023-09-08T06:53:16;98745.22;;;14.96;100.00
20156;BME280;10238;49.556;10.956;2023-09-08T06:56:04;98739.81;;;15.12;100.00
20156;BME280;10238;49.556;10.956;2023-09-08T06:58:52;98734.72;;;15.25;100.00
20156;BME280;10238;49.556;10.956;2023-09-08T07:01:41;98736.53;;;15.33;100.00
20156;BME280;10238;49.556;10.956;2023-09-08T07:04:29;98742.50;;;15.51;100.00
20156;BME280;10238;49.556;10.956;2023-09-08T07:07:16;98737.84;;;15.75;100.00
20156;BME280;10238;49.556;10.956;2023-09-08T07:10:08;98739.50;;;15.99;100.00
20156;BME280;10238;49.556;10.956;2023-09-08T07:12:56;98743.94;;;16.29;100.00
20156;BME280;10238;49.556;10.956;2023-09-08T07:15:44;98731.72;;;16.49;100.00
20156;BME280;10238;49.556;10.956;2023-09-08T07:18:33;98727.84;;;16.66;100.00
20156;BME280;10238;49.556;10.956;2023-09-08T07:21:23;98724.38;;;16.80;100.00
20156;BME280;10238;49.556;10.956;2023-09-08T07:24:10;98720.72;;;16.87;100.00
20156;BME280;10238;49.556;10.956;2023-09-08T07:26:58;98716.56;;;16.99;100.00
20156;BME280;10238;49.556;10.956;2023-09-08T07:29:47;98719.88;;;17.16;100.00
20156;BME280;10238;49.556;10.956;2023-09-08T07:32:36;98710.03;;;17.38;100.00
20156;BME280;10238;49.556;10.956;2023-09-08T07:35:25;98702.59;;;17.54;100.00
20156;BME280;10238;49.556;10.956;2023-09-08T07:38:13;98694.03;;;17.65;100.00
20156;BME280;10238;49.556;10.956;2023-09-08T07:41:01;98688.91;;;17.91;100.00
20156;BME280;10238;49.556;10.956;2023-09-08T07:43:50;98683.66;;;18.04;100.00
20156;BME280;10238;49.556;10.956;2023-09-08T07:46:37;98688.78;;;18.20;100.00
20156;BME280;10238;49.556;10.956;2023-09-08T07:49:25;98676.94;;;18.42;100.00
20156;BME280;10238;49.556;10.956;2023-09-08T07:52:14;98682.47;;;18.62;100.00
20156;BME280;10238;49.556;10.956;2023-09-08T07:55:02;98676.75;;;18.71;100.00
20156;BME280;10238;49.556;10.956;2023-09-08T07:57:51;98685.72;;;18.85;100.00
20156;BME280;10238;49.556;10.956;2023-09-08T08:00:39;98678.94;;;18.95;100.00
20156;BME280;10238;49.556;10.956;2023-09-08T08:03:27;98670.69;;;19.03;100.00
20156;BME280;10238;49.556;10.956;2023-09-08T08:06:15;98669.09;;;19.22;100.00
20156;BME280;10238;49.556;10.956;2023-09-08T08:09:04;98673.13;;;19.33;100.00
20156;BME280;10238;49.556;10.956;2023-09-08T08:11:52;98661.13;;;19.48;100.00
20156;BME280;10238;49.556;10.956;2023-09-08T08:14:39;98662.66;;;19.64;100.00
20156;BME280;10238;49.556;10.956;2023-09-08T08:17:27;98661.41;;;19.79;100.00
20156;BME280;10238;49.556;10.956;2023-09-08T08:20:16;98658.13;;;19.97;100.00
20156;BME280;10238;49.556;10.956;2023-09-08T08:23:06;98663.97;;;20.20;100.00
20156;BME280;10238;49.556;10.956;2023-09-08T08:25:55;98654.59;;;20.42;100.00
20156;BME280;10238;49.556;10.956;2023-09-08T08:28:43;98654.78;;;20.60;100.00
20156;BME280;10238;49.556;10.956;2023-09-08T08:31:30;98651.44;;;20.77;100.00
20156;BME280;10238;49.556;10.956;2023-09-08T08:34:20;98647.63;;;20.91;100.00
20156;BME280;10238;49.556;10.956;2023-09-08T08:37:07;98642.63;;;21.08;100.00
20156;BME280;10238;49.556;10.956;2023-09-08T08:39:54;98645.44;;;21.26;100.00
20156;BME280;10238;49.556;10.956;2023-09-08T08:42:43;98636.56;;;21.50;100.00
20156;BME280;10238;49.556;10.956;2023-09-08T08:45:34;98640.34;;;21.80;100.00
20156;BME280;10238;49.556;10.956;2023-09-08T08:48:23;98632.06;;;22.06;100.00
20156;BME280;10238;49.556;10.956;2023-09-08T08:51:13;98627.28;;;22.26;100.00
20156;BME280;10238;49.556;10.956;2023-09-08T08:54:03;98629.16;;;22.50;100.00
20156;BME280;10238;49.556;10.956;2023-09-08T08:56:51;98620.16;;;22.74;100.00
20156;BME280;10238;49.556;10.956;2023-09-08T08:59:41;98621.16;;;22.98;100.00
20156;BME280;10238;49.556;10.956;2023-09-08T09:02:29;98606.88;;;23.20;100.00
20156;BME280;10238;49.556;10.956;2023-09-08T09:05:19;98606.63;;;23.40;100.00
20156;BME280;10238;49.556;10.956;2023-09-08T09:08:07;98601.25;;;23.52;100.00
20156;BME280;10238;49.556;10.956;2023-09-08T09:10:55;98599.25;;;23.59;100.00
20156;BME280;10238;49.556;10.956;2023-09-08T09:13:43;98589.44;;;23.87;100.00
20156;BME280;10238;49.556;10.956;2023-09-08T09:16:39;98592.69;;;24.19;100.00
20156;BME280;10238;49.556;10.956;2023-09-08T09:19:27;98591.25;;;24.51;100.00
20156;BME280;10238;49.556;10.956;2023-09-08T09:22:20;98593.97;;;24.85;100.00
20156;BME280;10238;49.556;10.956;2023-09-08T09:25:08;98581.09;;;25.20;100.00
20156;BME280;10238;49.556;10.956;2023-09-08T09:27:59;98576.47;;;25.21;100.00
20156;BME280;10238;49.556;10.956;2023-09-08T09:30:50;98577.03;;;25.35;96.20
20156;BME280;10238;49.556;10.956;2023-09-08T09:33:39;98574.25;;;25.46;100.00
20156;BME280;10238;49.556;10.956;2023-09-08T09:36:27;98576.06;;;25.41;98.03
20156;BME280;10238;49.556;10.956;2023-09-08T09:39:17;98568.69;;;25.53;98.00
20156;BME280;10238;49.556;10.956;2023-09-08T09:42:06;98561.22;;;25.76;100.00
20156;BME280;10238;49.556;10.956;2023-09-08T09:44:54;98567.41;;;26.21;100.00
20156;BME280;10238;49.556;10.956;2023-09-08T09:47:43;98556.69;;;26.69;94.78
20156;BME280;10238;49.556;10.956;2023-09-08T09:50:35;98561.63;;;26.34;87.16
20156;BME280;10238;49.556;10.956;2023-09-08T09:53:23;98555.19;;;26.07;90.78
20156;BME280;10238;49.556;10.956;2023-09-08T09:56:11;98555.69;;;26.21;87.64
20156;BME280;10238;49.556;10.956;2023-09-08T09:59:03;98558.09;;;26.72;96.92
20156;BME280;10238;49.556;10.956;2023-09-08T10:01:53;98552.69;;;27.42;98.83
20156;BME280;10238;49.556;10.956;2023-09-08T10:04:42;98550.03;;;27.78;87.39
20156;BME280;10238;49.556;10.956;2023-09-08T10:07:32;98539.13;;;27.83;85.42
20156;BME280;10238;49.556;10.956;2023-09-08T10:10:21;98547.31;;;28.10;88.16
20156;BME280;10238;49.556;10.956;2023-09-08T10:13:12;98541.44;;;28.33;80.78
20156;BME280;10238;49.556;10.956;2023-09-08T10:16:02;98542.81;;;28.35;79.40
20156;BME280;10238;49.556;10.956;2023-09-08T10:18:52;98543.38;;;28.74;83.94
20156;BME280;10238;49.556;10.956;2023-09-08T10:21:45;98532.34;;;29.15;76.61
20156;BME280;10238;49.556;10.956;2023-09-08T10:24:35;98530.19;;;29.33;77.86
20156;BME280;10238;49.556;10.956;2023-09-08T10:27:25;98528.84;;;29.45;72.41
20156;BME280;10238;49.556;10.956;2023-09-08T10:30:14;98518.44;;;29.57;77.66
20156;BME280;10238;49.556;10.956;2023-09-08T10:33:04;98512.13;;;29.57;69.11
20156;BME280;10238;49.556;10.956;2023-09-08T10:35:54;98508.91;;;29.85;75.74
20156;BME280;10238;49.556;10.956;2023-09-08T10:38:42;98508.59;;;30.31;74.65
20156;BME280;10238;49.556;10.956;2023-09-08T10:41:35;98505.03;;;30.36;67.30
20156;BME280;10238;49.556;10.956;2023-09-08T10:44:23;98510.56;;;30.21;73.90
20156;BME280;10238;49.556;10.956;2023-09-08T10:47:10;98503.38;;;30.35;71.47
20156;BME280;10238;49.556;10.956;2023-09-08T10:49:58;98502.81;;;30.53;74.28
20156;BME280;10238;49.556;10.956;2023-09-08T10:53:05;98493.69;;;30.77;70.34
20156;BME280;10238;49.556;10.956;2023-09-08T10:55:53;98497.75;;;30.85;64.39
20156;BME280;10238;49.556;10.956;2023-09-08T10:58:51;98493.50;;;31.12;69.28
20156;BME280;10238;49.556;10.956;2023-09-08T11:01:39;98496.47;;;31.16;69.68
20156;BME280;10238;49.556;10.956;2023-09-08T11:04:29;98492.66;;;31.61;71.03
20156;BME280;10238;49.556;10.956;2023-09-08T11:07:18;98496.28;;;31.95;66.49
20156;BME280;10238;49.556;10.956;2023-09-08T11:10:07;98492.38;;;31.62;56.77
20156;BME280;10238;49.556;10.956;2023-09-08T11:12:57;98497.94;;;31.08;68.73
20156;BME280;10238;49.556;10.956;2023-09-08T11:15:47;98491.53;;;31.62;60.73
20156;BME280;10238;49.556;10.956;2023-09-08T11:18:35;98501.94;;;30.67;57.21
20156;BME280;10238;49.556;10.956;2023-09-08T11:21:24;98503.13;;;30.41;61.48
20156;BME280;10238;49.556;10.956;2023-09-08T11:24:12;98499.78;;;30.49;60.36
20156;BME280;10238;49.556;10.956;2023-09-08T11:27:01;98495.69;;;31.10;65.83
20156;BME280;10238;49.556;10.956;2023-09-08T11:29:50;98500.97;;;31.51;57.48
20156;BME280;10238;49.556;10.956;2023-09-08T11:32:39;98496.69;;;31.35;60.16
20156;BME280;10238;49.556;10.956;2023-09-08T11:35:28;98495.53;;;31.84;59.51
20156;BME280;10238;49.556;10.956;2023-09-08T11:38:16;98489.94;;;31.94;55.08
20156;BME280;10238;49.556;10.956;2023-09-08T11:41:03;98493.44;;;31.28;51.68
20156;BME280;10238;49.556;10.956;2023-09-08T11:43:51;98491.19;;;31.35;63.79
20156;BME280;10238;49.556;10.956;2023-09-08T11:46:40;98488.78;;;31.67;57.64
20156;BME280;10238;49.556;10.956;2023-09-08T11:49:34;98484.00;;;31.77;57.69
20156;BME280;10238;49.556;10.956;2023-09-08T11:52:23;98487.47;;;31.93;52.20
20156;BME280;10238;49.556;10.956;2023-09-08T11:55:12;98485.16;;;31.71;49.31
20156;BME280;10238;49.556;10.956;2023-09-08T11:58:00;98483.22;;;31.72;51.40
20156;BME280;10238;49.556;10.956;2023-09-08T12:00:48;98487.94;;;32.00;57.25
20156;BME280;10238;49.556;10.956;2023-09-08T12:03:51;98478.16;;;32.46;52.89
20156;BME280;10238;49.556;10.956;2023-09-08T12:06:41;98478.91;;;32.75;52.16
20156;BME280;10238;49.556;10.956;2023-09-08T12:09:29;98478.25;;;32.83;52.64
20156;BME280;10238;49.556;10.956;2023-09-08T12:12:17;98474.59;;;33.11;51.53
20156;BME280;10238;49.556;10.956;2023-09-08T12:15:06;98473.94;;;33.56;52.74
20156;BME280;10238;49.556;10.956;2023-09-08T12:17:53;98470.84;;;33.95;52.57
20156;BME280;10238;49.556;10.956;2023-09-08T12:20:42;98465.88;;;34.24;51.92
20156;BME280;10238;49.556;10.956;2023-09-08T12:23:32;98456.00;;;34.36;49.55
20156;BME280;10238;49.556;10.956;2023-09-08T12:26:20;98457.59;;;34.10;46.44
20156;BME280;10238;49.556;10.956;2023-09-08T12:29:13;98456.19;;;33.62;48.96
20156;BME280;10238;49.556;10.956;2023-09-08T12:32:01;98457.84;;;33.45;53.15
20156;BME280;10238;49.556;10.956;2023-09-08T12:34:50;98453.97;;;33.64;51.33
20156;BME280;10238;49.556;10.956;2023-09-08T12:37:39;98452.66;;;33.75;45.67
20156;BME280;10238;49.556;10.956;2023-09-08T12:40:29;98452.16;;;33.73;46.77
20156;BME280;10238;49.556;10.956;2023-09-08T12:43:17;98445.75;;;34.10;52.05
20156;BME280;10238;49.556;10.956;2023-09-08T12:46:16;98451.25;;;34.23;43.90
20156;BME280;10238;49.556;10.956;2023-09-08T12:49:04;98454.63;;;34.07;48.71
20156;BME280;10238;49.556;10.956;2023-09-08T12:51:55;98440.28;;;33.73;46.56
20156;BME280;10238;49.556;10.956;2023-09-08T12:54:42;98441.91;;;33.23;47.75
20156;BME280;10238;49.556;10.956;2023-09-08T12:57:31;98443.97;;;33.31;47.21
20156;BME280;10238;49.556;10.956;2023-09-08T13:00:20;98445.31;;;33.15;45.54
20156;BME280;10238;49.556;10.956;2023-09-08T13:03:09;98450.69;;;33.25;48.79
20156;BME280;10238;49.556;10.956;2023-09-08T13:05:57;98432.75;;;33.78;49.39
20156;BME280;10238;49.556;10.956;2023-09-08T13:08:44;98439.75;;;33.71;44.86
20156;BME280;10238;49.556;10.956;2023-09-08T13:11:32;98433.75;;;32.94;41.67
20156;BME280;10238;49.556;10.956;2023-09-08T13:14:21;98441.38;;;32.32;43.86
20156;BME280;10238;49.556;10.956;2023-09-08T13:17:12;98443.88;;;32.33;49.71
20156;BME280;10238;49.556;10.956;2023-09-08T13:20:02;98436.22;;;32.96;49.15
20156;BME280;10238;49.556;10.956;2023-09-08T13:22:50;98434.16;;;33.25;45.83
20156;BME280;10238;49.556;10.956;2023-09-08T13:25:38;98428.94;;;33.42;44.52
20156;BME280;10238;49.556;10.956;2023-09-08T13:28:26;98434.69;;;33.08;42.44
20156;BME280;10238;49.556;10.956;2023-09-08T13:31:15;98430.03;;;33.23;47.42
20156;BME280;10238;49.556;10.956;2023-09-08T13:34:03;98424.28;;;33.56;45.84
20156;BME280;10238;49.556;10.956;2023-09-08T13:36:51;98422.13;;;33.85;46.75
20156;BME280;10238;49.556;10.956;2023-09-08T13:39:39;98415.34;;;33.96;46.46
20156;BME280;10238;49.556;10.956;2023-09-08T13:42:27;98411.59;;;34.19;43.94
20156;BME280;10238;49.556;10.956;2023-09-08T13:45:14;98416.50;;;33.95;43.35
20156;BME280;10238;49.556;10.956;2023-09-08T13:48:04;98405.84;;;34.02;45.35
20156;BME280;10238;49.556;10.956;2023-09-08T13:50:53;98409.97;;;34.45;45.16
20156;BME280;10238;49.556;10.956;2023-09-08T13:53:43;98406.47;;;34.26;42.08
20156;BME280;10238;49.556;10.956;2023-09-08T13:56:33;98402.84;;;34.44;46.48
20156;BME280;10238;49.556;10.956;2023-09-08T13:59:21;98393.88;;;34.74;43.08
20156;BME280;10238;49.556;10.956;2023-09-08T14:02:13;98396.19;;;35.08;45.56
20156;BME280;10238;49.556;10.956;2023-09-08T14:05:06;98393.91;;;35.24;43.42
20156;BME280;10238;49.556;10.956;2023-09-08T14:07:55;98392.44;;;35.40;43.63
20156;BME280;10238;49.556;10.956;2023-09-08T14:10:53;98388.53;;;35.27;41.24
20156;BME280;10238;49.556;10.956;2023-09-08T14:13:55;98390.50;;;34.91;43.49
20156;BME280;10238;49.556;10.956;2023-09-08T14:16:43;98394.41;;;34.76;42.18
20156;BME280;10238;49.556;10.956;2023-09-08T14:19:31;98382.13;;;34.82;42.41
20156;BME280;10238;49.556;10.956;2023-09-08T14:22:20;98375.84;;;35.04;41.20
20156;BME280;10238;49.556;10.956;2023-09-08T14:25:08;98370.69;;;35.11;44.81
20156;BME280;10238;49.556;10.956;2023-09-08T14:27:56;98377.69;;;35.31;43.97
20156;BME280;10238;49.556;10.956;2023-09-08T14:30:49;98374.59;;;35.46;45.72
20156;BME280;10238;49.556;10.956;2023-09-08T14:33:37;98377.19;;;35.51;41.37
20156;BME280;10238;49.556;10.956;2023-09-08T14:36:25;98372.91;;;35.45;45.49